»·PEaware :: N800DW CYEV-KGEG

N800DW :: CYEV-KGEG

FLIGHT INFORMATION

Flight Status: Arrived
Operator: Privately registered:
United States
More flights under this callsign
Pilot: Scott L. (17677)
Aircraft: CESSNA 510 CITATION MUSTANG
(C510)
More flights by this aircraft type
Origin: CYEV Zubko
Canada
Destination: KGEG Spokane Intl
United States
More flights between these airports :: More routes between these airports
Route: YYE YQU J550 YNY ONSET GEG
File this flight plan on PilotEdge
Remarks:
Altitude:
(Current/Filed)
33,000ft
Speed:
(Current/Filed)
400kts
Departed: 18-Oct-19 05:45 AM
Arrived: 18-Oct-19 07:43 AM
Distance/Time
Traveled:
1331nm/1:58
Distance/Time
To Go:
Arrived

Flight Plot

Page will automatically refresh every two minutes.

Flight plan parsing failed; only flown route is shown


Map Options




Map Legend


Flown Route
Filed Route
Departure Airport
Arrival Airport
Navaid (VOR, NDB)
Fix

Horizontal Profiles

Position Reports

Time Latitude Longitude Heading Altitude Ground
Speed
18-Oct-19 05:43 67.927410 -133.295447 150 15787ft 310kts
18-Oct-19 05:44 67.854491 -133.176175 150 18280ft 307kts
18-Oct-19 05:45 67.782361 -133.059045 149 20779ft 301kts
18-Oct-19 05:46 67.711679 -132.945036 149 23269ft 294kts
18-Oct-19 05:47 67.643040 -132.835140 149 25745ft 285kts
18-Oct-19 05:48 67.576966 -132.730044 149 28211ft 271kts
18-Oct-19 05:49 67.514752 -132.631715 149 30653ft 252kts
18-Oct-19 05:50 67.457708 -132.542087 149 32749ft 238kts
18-Oct-19 05:51 67.392493 -132.440328 149 32751ft 304kts
18-Oct-19 05:52 67.313875 -132.318373 150 32742ft 349kts
18-Oct-19 05:53 67.227108 -132.184868 150 32738ft 375kts
18-Oct-19 05:54 67.135452 -132.045089 150 32736ft 389kts
18-Oct-19 05:55 67.041044 -131.902430 150 32734ft 396kts
18-Oct-19 05:56 66.945093 -131.758777 150 32733ft 400kts
18-Oct-19 05:57 66.848451 -131.615429 149 32735ft 402kts
18-Oct-19 05:58 66.751457 -131.472876 150 32735ft 404kts
18-Oct-19 05:59 66.653757 -131.330614 150 32735ft 404kts
18-Oct-19 06:00 66.556330 -131.190044 150 32734ft 405kts
18-Oct-19 06:01 66.458203 -131.049737 150 32734ft 405kts
18-Oct-19 06:02 66.360494 -130.911081 151 32734ft 405kts
18-Oct-19 06:03 66.262260 -130.773059 151 32733ft 404kts
18-Oct-19 06:04 66.164328 -130.637051 151 32733ft 404kts
18-Oct-19 06:05 66.064882 -130.500000 151 32708ft 405kts
18-Oct-19 06:06 65.964365 -130.362657 151 32624ft 406kts
18-Oct-19 06:07 65.864798 -130.227837 152 32589ft 406kts
18-Oct-19 06:08 65.765980 -130.095211 152 32589ft 405kts
18-Oct-19 06:09 65.666938 -129.963464 152 32588ft 405kts
18-Oct-19 06:10 65.568040 -129.833047 152 32588ft 404kts
18-Oct-19 06:11 65.469257 -129.703906 152 32588ft 404kts
18-Oct-19 06:12 65.369927 -129.575193 152 32597ft 404kts
18-Oct-19 06:13 65.268733 -129.445195 152 32624ft 404kts
18-Oct-19 06:14 65.166594 -129.315153 153 32623ft 404kts
18-Oct-19 06:15 65.064517 -129.186275 153 32623ft 404kts
18-Oct-19 06:17 64.963097 -129.059328 153 32622ft 404kts
18-Oct-19 06:18 64.862300 -128.934205 153 32626ft 404kts
18-Oct-19 06:19 64.761972 -128.810829 153 32625ft 404kts
18-Oct-19 06:20 64.660671 -128.687344 153 32625ft 404kts
18-Oct-19 06:21 64.559070 -128.564487 153 32625ft 405kts
18-Oct-19 06:22 64.457864 -128.443121 153 32624ft 405kts
18-Oct-19 06:23 64.357267 -128.323504 154 32603ft 405kts
18-Oct-19 06:24 64.256619 -128.204791 154 32596ft 404kts
18-Oct-19 06:25 64.156024 -128.087117 154 32596ft 404kts
18-Oct-19 06:26 64.053350 -127.968002 154 32595ft 404kts
18-Oct-19 06:27 63.951615 -127.850947 154 32595ft 404kts
18-Oct-19 06:28 63.851410 -127.736583 154 32598ft 404kts
18-Oct-19 06:29 63.749784 -127.621525 154 32598ft 404kts
18-Oct-19 06:30 63.648219 -127.507474 154 32598ft 404kts
18-Oct-19 06:31 63.546418 -127.394076 154 32598ft 405kts
18-Oct-19 06:32 63.445026 -127.282044 155 32597ft 404kts
18-Oct-19 06:33 63.343148 -127.170354 155 32596ft 404kts
18-Oct-19 06:33 63.256935 -127.076609 155 32596ft 404kts
18-Oct-19 06:35 63.135462 -126.945494 155 32596ft 404kts
18-Oct-19 06:36 63.031762 -126.834410 155 32595ft 404kts
18-Oct-19 06:36 62.947111 -126.744435 155 32595ft 404kts
18-Oct-19 06:38 62.828617 -126.619489 155 32598ft 404kts
18-Oct-19 06:38 62.743186 -126.530105 155 32598ft 404kts
18-Oct-19 06:39 62.639466 -126.422358 155 32598ft 404kts
18-Oct-19 06:41 62.517958 -126.297205 155 32597ft 404kts
18-Oct-19 06:41 62.430552 -126.207857 155 32597ft 404kts
18-Oct-19 06:42 62.325975 -126.101731 155 32596ft 404kts
18-Oct-19 06:43 62.222008 -125.997018 155 32596ft 404kts
18-Oct-19 06:44 62.117405 -125.892484 155 32596ft 404kts
18-Oct-19 06:45 62.012939 -125.788883 155 32583ft 404kts
18-Oct-19 06:46 61.909482 -125.687053 155 32594ft 404kts
18-Oct-19 06:47 61.805834 -125.585808 155 32462ft 407kts
18-Oct-19 06:48 61.701687 -125.484828 155 32391ft 406kts
18-Oct-19 06:49 61.597752 -125.384796 155 32386ft 405kts
18-Oct-19 06:50 61.494380 -125.286044 156 32430ft 404kts
18-Oct-19 06:51 61.392026 -125.188970 156 32478ft 403kts
18-Oct-19 06:52 61.287679 -125.090726 156 32477ft 403kts
18-Oct-19 06:53 61.182550 -124.992432 156 32477ft 404kts
18-Oct-19 06:54 61.077221 -124.894662 157 32477ft 404kts
18-Oct-19 06:55 60.973142 -124.798784 157 32477ft 405kts
18-Oct-19 06:56 60.869868 -124.704406 157 32480ft 405kts
18-Oct-19 06:57 60.766552 -124.610618 157 32479ft 406kts
18-Oct-19 06:58 60.663803 -124.517979 157 32479ft 406kts
18-Oct-19 06:59 60.166597 -124.078711 157 32474ft 406kts
18-Oct-19 07:00 59.587116 -123.584705 157 32488ft 406kts
18-Oct-19 07:01 58.900170 -123.020497 157 32446ft 407kts
18-Oct-19 07:02 58.226571 -122.550008 175 32356ft 401kts
18-Oct-19 07:03 57.639682 -121.940570 147 32379ft 407kts
18-Oct-19 07:04 56.899646 -120.924462 152 32266ft 404kts
18-Oct-19 07:05 56.534426 -120.659839 118 32412ft 415kts
18-Oct-19 07:06 56.404542 -120.454426 148 32405ft 403kts
18-Oct-19 07:07 56.270609 -120.293941 149 32403ft 402kts
18-Oct-19 07:08 56.115863 -120.110337 149 32400ft 401kts
18-Oct-19 07:09 55.741829 -119.673744 149 32413ft 400kts
18-Oct-19 07:10 54.536592 -118.681695 184 32356ft 385kts
18-Oct-19 07:11 53.908224 -119.092198 197 32196ft 376kts
18-Oct-19 07:12 53.227970 -118.835953 180 32525ft 376kts
18-Oct-19 07:13 52.555263 -118.834233 163 32844ft 390kts
18-Oct-19 07:14 51.892018 -119.062003 191 32522ft 394kts
18-Oct-19 07:15 51.357976 -118.824977 168 32649ft 406kts
18-Oct-19 07:16 50.746962 -118.888662 186 32709ft 405kts
18-Oct-19 07:17 50.102018 -118.791572 149 32750ft 432kts
18-Oct-19 07:18 49.819469 -118.397757 175 32799ft 420kts
18-Oct-19 07:19 49.705108 -118.396935 167 32816ft 425kts
18-Oct-19 07:20 49.468923 -118.271658 164 32817ft 427kts
18-Oct-19 07:21 49.016301 -118.029612 166 32807ft 429kts
18-Oct-19 07:22 48.851888 -117.969921 178 32816ft 425kts
18-Oct-19 07:23 48.718083 -117.933975 178 31627ft 409kts
18-Oct-19 07:24 48.582533 -117.897437 177 25613ft 364kts
18-Oct-19 07:25 48.460935 -117.864754 176 19618ft 332kts
18-Oct-19 07:26 48.361143 -117.837836 176 16114ft 308kts
18-Oct-19 07:27 48.268614 -117.813098 175 12784ft 301kts
18-Oct-19 07:28 48.187535 -117.791958 173 9981ft 289kts
18-Oct-19 07:29 48.118760 -117.772898 173 9956ft 225kts
18-Oct-19 07:30 48.061421 -117.753998 143 9955ft 207kts
18-Oct-19 07:31 48.021107 -117.677277 125 8650ft 289kts
18-Oct-19 07:32 47.970094 -117.575992 125 6892ft 294kts
18-Oct-19 07:33 47.924072 -117.485433 125 5960ft 252kts
18-Oct-19 07:34 47.884555 -117.407981 124 5961ft 241kts
18-Oct-19 07:35 47.826537 -117.350393 149 4952ft 250kts
18-Oct-19 07:36 47.768852 -117.302090 167 5022ft 216kts
18-Oct-19 07:37 47.738896 -117.352481 237 5151ft 189kts
18-Oct-19 07:38 47.700623 -117.413417 227 3862ft 173kts
18-Oct-19 07:39 47.671953 -117.456798 226 3879ft 138kts
18-Oct-19 07:40 47.648030 -117.492948 225 2820ft 97kts
18-Oct-19 07:41 47.630269 -117.519718 225 2393ft 90kts
18-Oct-19 07:42 47.620840 -117.532005 137 2364ft 9kts
18-Oct-19 07:43 47.620814 -117.528443 133 2364ft 0kts
18-Oct-19 07:44 47.620815 -117.528443 133 2364ft 0kts
18-Oct-19 07:45 47.620815 -117.528443 133 2364ft 0kts
18-Oct-19 07:46 47.620815 -117.528443 133 2364ft 0kts
18-Oct-19 07:47 47.620815 -117.528443 133 2364ft 0kts
18-Oct-19 07:48 47.620815 -117.528443 133 2364ft 0kts
18-Oct-19 07:49 47.620815 -117.528443 133 2364ft 0kts
18-Oct-19 07:50 47.620815 -117.528443 133 2364ft 0kts
18-Oct-19 07:51 47.620815 -117.528443 133 2364ft 0kts
18-Oct-19 07:52 47.620815 -117.528443 133 2364ft 0kts
18-Oct-19 07:53 47.620815 -117.528443 133 2364ft 0kts
18-Oct-19 07:54 47.620815 -117.528443 133 2364ft 0kts
18-Oct-19 07:55 47.620815 -117.528443 133 2364ft 0kts
18-Oct-19 07:56 47.620815 -117.528443 133 2364ft 0kts

Navigation Log

Ident Type
Flight plan parsing failed, navigation log unavailable